Terminal Aerodrome Forecast
Issued by NWS

Current Version | Previous Version | Graphics & Text | Print | Product List | Glossary On
Versions: 1 2 3 4 5 6 7 8 9 10 11 12 13 14 15 16 17 18 19 20 21 22 23 24 25 26 27 28 29 30 31
000
FTUS41 KILN 270202 AAA
TAFLUK
TAF AMD
KLUK 270202Z 2702/2724 00000KT 6SM BR SCT050 OVC150
     FM270400 00000KT 5SM -SHRA BR BKN050 OVC100
     FM271000 00000KT 4SM BR SCT050 BKN100
     FM271400 VRB05KT P6SM SCT035 SCT100
     FM271800 VRB05KT P6SM VCSH BKN040=

USA.gov is the U.S. government's official web portal to all federal, state and local government web resources and services.